Cincinnati Northern Kentucky International Airport
KCVG : now visible

Airfield :











YOU CAN JOIN US ON...

 
LOGIN :

Register | Disclaimer

   EN    FR    IT 

 









Legend :    VFR   Marginal VFR   IFR   Intensive IFR   Very Intensive IFR
Visi :
Ceiling :
>= 8 km
>= 3000ft
5 to 8 km
1000 to 3000 ft
1500m to 5 km
500 to 1000 ft
800 to 1500m
200 to 500 ft
< 800m
< 200 ft
Symbols :   Thunderstorms  Fog  Heavy snow  Heavy precipitations  Wind > 20 kt







- Airport Elevation : 896 ft
- IATA code : CVG


KCVG - Cincinnati Northern Kentucky International

CURRENT METAR :
  • 212052Z 19007KT 10SM FEW065 FEW150 BKN250 31/14 A3017 RMK AO2 SLP204 T03110144 56018

EXPIRED METARs :
  • 211952Z 23012KT 10SM FEW060 FEW120 BKN250 31/14 A3018 RMK AO2 SLP209 T03110144
  • 211852Z 23012G18KT 10SM SCT075 BKN120 31/14 A3020 RMK AO2 SLP216 T03110144

TAF KCVG
Valid from the 21 at 21:00 until the 23 at 00:00 UTC


212055Z 2121/2224 22010KT P6SM SCT070
FM220000 21005KT P6SM SCT150
FM221300 19008KT P6SM SCT250
FM221600 20012G18KT P6SM FEW060 SCT250
No reported NOTAMs for that airfield.



MET'MAP, your aeronautical weather chart ! - Copyright ORBIFLY December 2007 - Disclaimer

ORBIFLY MET'MAP TEAM :

Programming & Development : Alexandra Zaïnal
Concept & Development : Baudouin d'Aumeries
Co-Development & Prog : Marc-Olivier Méhu
Technical & hardware support : Manuel Goepfert

Contact : metmap@orbifly.com




SOURCES & CREDITS :

   NOAA       Earth
Advisory